CYGKCYTR

Guest
Details From CYGK - Kingston
To CYTR - Trenton
Flight Number -
Tags Generated
Created
Modified
Stats Distance 41 nm / 75 km
Max Altitude 0 ft / 0 m
Waypoints 2
Social Downloads 7
Likes 0
Share VATSIM

Download

Looking for another format? Having issues loading an existing format? Contact us
Advertisement - Login to hide

Notes

Generated

Route

CYGK CYTR

ID Type Via Altitude Latitude Longitude Leg Dist Tot Dist Heading (true) Name
O CYGK APT - 0 ft / 0 m 44.21861˚ -76.60139˚ - 0 nm - KINGSTON
O CYTR APT - 0 ft / 0 m 44.11750˚ -77.53694˚ 40 nm 40 nm 262° / 261° -

Altitude Profile

Advertisement - Login to hide

CYGK

Details ICAO CYGK (YGK)
Name KINGSTON
Region Canada
Timezone America/Toronto (UTC-5.0)
Stats Elevation 305 ft / 93 m (AMSL)
Location 44.223472° -76.598400°
Runways 2
Magnetic Variation 12.385° W

METAR

CYGK 171700Z 07006KT 15SM FEW015 BKN250 M13/M19 A3033 RMK SC1CI6 SC TR SLP281

Decode

TAF

TAF TAF CYGK 171242Z 1713/1801 34006KT P6SM FEW005 FEW250 FM171800 36006KT P6SM SKC FM172200 05008KT P6SM BKN150 RMK NXT FCST BY 172000Z

Decode

Departure Runways

ID Width Length Bearing (true) Bearing (mag) Surface Threshold Offset Overrun Length
01 100 ft / 30 m 4,980 ft / 1,518 m 355.82° 8.21° Asphalt 365 ft / 111 m 0 ft / 0 m
07 100 ft / 30 m 3,955 ft / 1,205 m 53.91° 66.30° Asphalt 0 ft / 0 m 0 ft / 0 m
19 100 ft / 30 m 4,980 ft / 1,518 m 175.82° 188.21° Asphalt 0 ft / 0 m 0 ft / 0 m
25 100 ft / 30 m 3,955 ft / 1,205 m 233.92° 246.31° Asphalt 0 ft / 0 m 0 ft / 0 m

CYTR

Details ICAO CYTR (YTR)
Name TRENTON
Region Canada
Timezone America/Toronto (UTC-5.0)
Stats Elevation 283 ft / 86 m (AMSL)
Location 44.116529° -77.529722°
Runways 2
Magnetic Variation 11.790° W

METAR

CYTR 171700Z 04005KT 15SM BKN220 M13/M19 A3033 RMK CS7 HALO SLP280

Decode

TAF

TAF CYTR 171130Z 1712/1812 VRB03KT P6SM SKC FM171800 04005KT P6SM BKN140 FM180200 04005KT P6SM -SN SCT010 OVC020 FM180600 04005KT 4SM -SN OVC010 RMK NXT FCST BY 171800Z

Decode

Destination Runways

ID Width Length Bearing (true) Bearing (mag) Surface Threshold Offset Overrun Length
06 200 ft / 61 m 10,013 ft / 3,052 m 50.37° 62.16° Asphalt 1,000 ft / 305 m 0 ft / 0 m
13 150 ft / 46 m 3,027 ft / 923 m 120.12° 131.91° Asphalt 0 ft / 0 m 0 ft / 0 m
24 200 ft / 61 m 10,013 ft / 3,052 m 230.39° 242.18° Asphalt 1,000 ft / 305 m 0 ft / 0 m
31 150 ft / 46 m 3,027 ft / 923 m 300.13° 311.92° Asphalt 0 ft / 0 m 0 ft / 0 m

Approach Navaids

Runway Type Ident Frequency Range Bearing (true) Bearing (mag) Slope Elevation
24 Localiser ITR 109.70 MHz 18 nm / 33 km 232.77° 244.56° - 283 ft / 86 m (AMSL)
24 Glidescope ITR 109.70 MHz 10 nm / 19 km 230.38° 242.17° 3.00° 283 ft / 86 m (AMSL)